Quantcast
Maps Points of Interest Search F.A.Q. Tutorial Download Forums About us

The City of Freeport

Enter a custom location to show on the map:
  custom loc 
414 POI's in The City of Freeport
UID Name Type /Loc Submitter Date
65464 Attendant Ulrein (Conservatory) Quest starter NPC -53.66, -20.05, -266.28 Sigrdrifa 09/04/17
64732 Tall Jim Quest update NPC -81.00, -37.00, 54.00 jepster4515 02/25/17
64319 Darrget Xyl'mir Quest starter NPC -16.52, -7.92, -153.31 makingitbetter7 11/04/16
63342 Agnostic Dungeons Entrance Agnostic dungeon 212.25, -3.03, -41.99 -Daybreak- 08/31/17
63341 Prestige Housing Portal Prestige housing -113.26, -18.02, 271.63 -Daybreak- 08/31/17
63098 Gandy Gearlotta - Festive Flames Quest update NPC 55.91, -19.91, 78.60 makingitbetter7 11/06/15
63019 Age's End <house item/book> Site 6.02, 8.59, -117.04 Orshan 08/11/15
63018 Corina Farsight Quest update NPC -84.47, -7.27, -190.06 Orshan 08/11/15
63013 Illevius Quest update NPC -93.00, -37.22, 14.11 Orshan 08/11/15
63012 Kel'drax Quest update NPC -253.70, -56.07, 201.28 Orshan 08/11/15
63011 Myll'dreth Quest update NPC -49.51, -7.64, 232.42 Orshan 08/11/15
63004 Inventor's Outlook Site -101.40, -23.80, 114.25 Alnitak 07/24/15
62691 Myia Selvin <<Channeler Trainer>> Scribe -63.48, -7.97, -129.88 crpillot 03/02/15
62664 Elon Gallwin Quest starter NPC 8.00, 7.00, -108.00 donhead 02/27/15
62654 L'rak Ta'Wound Quest update NPC -123.00, -38.00, 31.00 donhead 02/27/15
62138 Timeless Chronomage NPC -274.00, -56.00, 82.00 TCharlie1 12/26/14
61986 Psellic Quest starter NPC 171.01, -3.53, 20.35 Kashgari 12/01/14
61851 Newsie Quest update NPC -101.89, -7.67, -164.81 gus_scottexley 11/23/14
61828 Imaryn Yth`Dare Quest update NPC 20.08, -20.05, -301.92 angelickisser 11/20/14
61827 Aezaar the Damned Quest update NPC -101.93, -7.68, -165.11 angelickisser 11/20/14
61641 RumDum Quest starter NPC -236.60, -55.18, 12.45 Obumx 10/28/14
61466 Elrinn Darknor Quest starter NPC -96.09, -8.15, -95.03 RudgerWolvram 06/14/14
61465 Elguka the Oracle Quest update NPC -112.03, -8.03, -130.40 RudgerWolvram 06/14/14
61464 Vimminy Crix Quest starter NPC -211.76, -56.07, 39.30 RudgerWolvram 06/14/14
61463 Blaira Va'Tyrn Quest starter NPC -211.55, -56.07, 32.18 RudgerWolvram 06/14/14
61418 Chaoxin Quest update NPC 234.00, -4.00, 129.00 zaradann 05/04/14
61159 Wandering Vampire Quest update NPC -83.80, -37.86, 54.15 ruadhin 01/03/14
61149 An Ancient Scroll Quest update location 5.51, 8.06, -114.96 zufious 01/01/14
61088 Infiltrator Kath Quest update NPC -99.00, -11.00, -78.00 Dnoelle 12/10/13
61072 Wandering Vampire Quest update NPC 301.26, -4.08, 96.99 Shaphron 12/08/13
61071 Wandering Vampire Quest update NPC 177.00, -16.00, 120.00 Shaphron 12/08/13
61070 Wandering Vampire Quest update NPC -112.35, -11.00, -83.31 Shaphron 12/08/13
60790 a Nights of the Dead merchant Shop 42.00, -12.00, 87.00 donhead 11/10/13
60786 Erus Dal'viv NPC -28.30, -7.83, -121.23 theodious 10/28/13
60672 Noble Toowik Mclure NPC -226.30, -55.71, 86.65 Aerryn 08/13/13
60671 Noble Tark Validus NPC -223.97, -55.71, 87.75 Aerryn 08/13/13
60628 To Arena of the Gods Door -138.90, -8.15, -113.50 -Daybreak- 08/31/17
60627 Veteran Reward Merchants Site -225.00, -55.70, 87.50 -Daybreak- 08/31/17
59966 Jade Tiger Inn Comfort Suite Inn -90.63, -11.00, -84.32 -Daybreak- 08/31/17
59648 Archivist Jindlefog Quest starter NPC 10.19, -37.95, -120.94 josykatz 02/09/13
59499 Nasin Library back entrance Quest update location -150.01, -58.68, -223.65 JTEclipse 01/06/13
59127 Words of Zxrath Quest update location -163.74, -57.54, -236.75 Drudge 11/19/12
59126 Words of Zxrath Quest update location 272.63, -3.52, -110.19 Drudge 11/19/12
59125 Words of Zxrath Quest update location 166.41, -3.53, 35.56 Drudge 11/19/12
59124 Words of Zxrath Quest update location -211.30, -56.48, 155.34 Drudge 11/19/12
59123 Words of Zxrath Quest update location 177.81, -23.42, 131.30 Drudge 11/19/12
59122 Words of Zxrath Quest update location -231.62, -56.15, -5.73 Drudge 11/19/12
58520 Londiar Inygad <Adorning Daily Tasks> Quest starter NPC 23.78, -12.43, 92.81 Ybles 11/10/12
58518 Dashenti Lasheris <<Vampiric Mercenary>> Mercenaries -211.00, -273.00, 2.00 donhead 11/08/12
58514 Freeport Transport Bell Bell 246.79, -3.52, -45.65 Rasaraja 11/07/12
58501 Haunted House Zone 223.00, -2.00, -134.00 donhead 10/31/12
58500 Gigglegibber Scalper Quest starter NPC 226.00, -2.00, -130.00 donhead 10/31/12
58499 Freid Deekat Quest starter NPC 183.00, -4.00, -81.00 donhead 10/31/12
58498 Basket of Apples Quest update location 26.00, -18.00, 85.00 donhead 10/31/12
58432 Gigglegibber Scalper Quest starter location 223.36, -2.47, -127.20 Dagna 10/14/12
58293 Sanura Lithestripe Quest update NPC -130.00, -38.00, -6.00 donhead 09/18/12
58292 A Cellar Trapdoor Zone -135.00, -24.00, -93.00 donhead 09/18/12
58291 Crate in the Jade Tiger's Den Quest update location -70.00, -21.00, -69.00 donhead 09/18/12
58290 Crate at the Outdoor Market Quest update location 127.00, -4.00, -62.00 donhead 09/18/12
58289 Crate at the Outdoor Market Quest update location 180.00, -3.00, -114.00 donhead 09/18/12
58288 Crate at the Outdoor Market Quest update location 275.00, -4.00, -99.00 donhead 09/18/12
58287 Saveth Noolright Quest update NPC -68.00, -21.00, 132.00 donhead 09/18/12
58286 Tullia Domna Quest update NPC -213.00, -59.00, -177.00 donhead 09/18/12
58285 Crate at the Docks Quest update location -287.00, -56.00, 59.00 donhead 09/18/12
58284 Crate at the Docks Quest update location -213.00, -56.00, -21.00 donhead 09/18/12
58283 Captain Vrondell Quest update NPC 140.00, 1.00, 125.00 donhead 09/18/12
58282 Intelligence Officer Gezlowe Quest update NPC 161.00, -17.00, 111.00 donhead 09/18/12
58281 A Weary Kor Shaman Quest starter NPC 147.00, -26.00, 144.00 donhead 09/18/12
58280 Jojo Karanja Quest update NPC -261.00, -55.00, 7.00 donhead 09/18/12
58279 Drake Fallon Quest update NPC -44.00, -8.00, 165.00 donhead 09/18/12
58278 Melenia Scantus Quest update NPC -90.00, -38.00, -15.00 donhead 09/18/12
58277 Mareva D'Iniv Quest starter NPC 32.00, -7.00, -131.00 donhead 09/18/12
58276 Slinko Quest update NPC -50.00, -24.00, -28.00 donhead 09/18/12
58275 Iulus U'Vas Quest update NPC 140.00, -4.00, -77.00 donhead 09/18/12
58262 Archivist Jindlefog Quest starter NPC 8.00, -38.00, -123.00 donhead 09/17/12
58235 Map Piece Quest update location 23.33, -5.97, -129.65 Rathorius 09/14/12
58116 Forge - with Reforger Tradeskill -261.71, -55.46, 97.61 Stardrama 08/31/12
58016 Privateer Twitchwhisker NPC -234.54, -56.06, 155.05 calainis 08/10/12
58014 Ramp upto Jade Tiger Inn area Cave entrance -158.72, -53.99, -37.24 uberfuzzy 08/07/12
58012 Gnomish Spirits Quest update location -105.00, -23.00, 108.00 donhead 08/06/12
57996 Temple Street Gate Door -174.84, -36.64, 325.59 farcrowe 07/29/12
57476 In th Light of Day Quest update location 31.40, -8.01, -91.64 Stardrama 06/16/12
57266 Kain Starkson Quest starter NPC -252.72, -55.19, 15.20 Hollcome 05/13/12
57040 Blight Sage Destroz NPC -87.66, -7.27, -184.20 Katelynesa 04/24/12
57039 Baron Zafimus NPC 157.81, 0.66, 122.56 Katelynesa 04/24/12
57036 Boatswain Fomas NPC -237.94, -48.95, -20.65 Katelynesa 04/24/12
57035 Liege Helvanica NPC 175.47, -23.42, 129.48 Katelynesa 04/24/12
56604 a hidden sewer grate Zone -171.66, -57.97, -177.85 CinnamonGrrl 04/14/12
56599 Corporal Henk Rimebreaker Quest update NPC -97.69, -24.95, 182.14 TobiasFrost 04/12/12
56598 Ignacius Fallon <<Apothecary>> Quest update NPC -62.00, -38.00, 27.00 donhead 04/11/12
56591 Tunarian Flowers Quest update location 121.04, -4.12, -61.00 aalange 04/07/12
56567 a forgotten sewer grate Zone -223.84, -75.60, 35.25 CinnamonGrrl 04/04/12
56537 Confidential Report Quest update location 156.39, 0.65, 134.92 CRAZ2000 03/30/12
56526 Abner Siblet Quest update NPC -104.50, -21.09, -78.81 CinnamonGrrl 03/27/12
56525 Barb Islenet Quest update NPC -28.39, -20.06, -271.99 CinnamonGrrl 03/27/12
56524 Zoe Hertzflip Quest update NPC 222.35, -3.49, 76.78 CinnamonGrrl 03/27/12
56523 Frethe Zizlop Quest update NPC 283.57, -3.52, -102.97 CinnamonGrrl 03/27/12
56235 Hidden Room Zone -4.67, -8.29, 147.94 CinnamonGrrl 03/22/12
56220 Portal caster's hideout Zone -73.37, -34.58, -362.15 CinnamonGrrl 03/18/12
56206 The Forgotten Quest update NPC 196.09, -3.55, -34.90 Johania 03/16/12
56162 Professor Flimflam Quest starter NPC -109.64, -22.80, 117.58 Lera 03/12/12
56148 Hisska Rakepaw Quest update NPC -14.04, -20.05, -303.25 Lera 03/07/12
56144 Nexa L'Dur NPC -3.11, -42.76, -141.29 Litlbigman 03/06/12
56128 Block and Tackle Site -207.23, -56.58, 169.57 Litlbigman 03/05/12
56126 Ullon Quest update NPC -228.85, -56.08, 59.44 Lera 03/04/12
56125 Eaneal Quest update NPC 103.01, -20.04, 72.02 Lera 03/04/12
56124 Dela Quest update NPC -11.04, -20.31, 34.91 Lera 03/04/12
56123 Historian Velanie Quest update NPC 25.59, -7.00, -113.09 Lera 03/04/12
56113 Shungi Quest update NPC -119.85, -24.34, -51.81 Lera 03/03/12
56112 Azreana Quest starter NPC 3.77, 7.30, -117.81 Lera 03/03/12
56109 Asbjorn Greyaxe Quest update NPC -110.07, -21.43, -88.50 Lera 03/01/12
56108 Clan Chief Malachi Sleetsaber Quest update NPC -79.16, -7.86, 202.17 Lera 03/01/12
56107 Gerhild Maclennan Quest update NPC -68.14, -37.85, 14.15 Lera 03/01/12
56106 Mikki Denune Quest update NPC 264.99, -3.71, 116.42 Lera 03/01/12
56105 Selyse Brazenroot Quest starter NPC 156.80, -16.79, 127.05 Lera 03/01/12
56093 The Hidden Crypt Zone -113.75, -53.12, -343.28 Lera 02/26/12
56092 Rav'hyl Daln Quest update NPC -14.25, -7.93, -139.68 Lera 02/26/12
56077 Ambassador Brutus Quest starter NPC -126.11, -37.77, 40.45 Lera 02/25/12
56076 Fight Quest update NPC -303.18, -56.07, 108.88 Lera 02/25/12
56075 Fight Quest update NPC -73.20, -23.80, 134.56 Lera 02/25/12
56074 a street tough Quest update NPC -101.00, -33.39, -329.24 Lera 02/25/12
56064 Freeport Militia House Site 130.69, -16.04, 113.41 Enamoura 02/21/12
56058 Lyricist Sha'son Quest update NPC -394.62, -56.95, 1.37 Moiya 02/20/12
56057 Lyricist Te'naj Quest update NPC -27.73, -21.82, 112.11 Moiya 02/20/12
56056 Juggernaut Gymnasium Site 249.50, -2.91, 70.02 Ademaro83 02/20/12
56055 Block and tackle Take Quest update location -211.00, -56.48, 152.17 Ademaro83 02/19/12
56043 Zone in for The Old "Switcheroo" Site 23.36, -19.78, 109.02 Raiivann 02/14/12
56042 Zone in for The Captain's Ring Site -286.52, -57.94, 133.01 Raiivann 02/14/12
56041 Zone in for Party Crasher Site 17.11, -20.06, -207.67 Raiivann 02/14/12
56040 Zone in for Extracting the Defector Site -158.44, -34.76, 154.41 Raiivann 02/14/12
55988 In The Light of Day Quest update location -162.57, -46.08, -143.62 nitestorm731 02/14/12
55987 In the Light of Day Quest update location -81.90, -33.51, -326.86 nitestorm731 02/14/12
55972 The Commonlands Door 297.00, -4.00, -70.00 donhead 02/10/12
55971 Vixxi Starguide Quest update NPC -100.00, -21.00, -84.00 donhead 02/10/12
55970 Zak Silvanus Quest update NPC 295.00, -4.00, 16.00 donhead 02/10/12
55969 Marjorie Falconius Quest update NPC 201.00, -3.00, 70.00 donhead 02/10/12
55968 Amund MacRae Quest update NPC 155.00, 1.00, 124.00 donhead 02/10/12
55967 Lysndra Quest update NPC 46.00, -12.00, 93.00 donhead 02/10/12
55966 Beldrin Findlebolt Quest update NPC 25.00, -18.00, 84.00 donhead 02/10/12
55965 Colt Longpier Quest update NPC 134.00, -4.00, -82.00 donhead 02/10/12
55964 Tyluna Whittlebit Quest update NPC 196.00, -2.00, -118.00 donhead 02/10/12
55961 Christina Halfsocks Quest update NPC -230.00, -49.00, -11.00 donhead 02/10/12
55960 Salty Joe Quest update NPC -306.00, -56.00, 74.00 donhead 02/10/12
55959 Priestess Alena the Chaste Quest update NPC -64.00, -8.00, -119.00 donhead 02/10/12
55958 Rex Tinforge Quest update NPC -133.00, -38.00, 68.00 donhead 02/10/12
55957 Brandi Bender Quest update NPC -107.00, -24.00, 103.00 donhead 02/10/12
55951 Statuette of Sir Dandle Quest update location -131.48, -43.53, -56.44 Kuhlbreaz 02/06/12
55950 Backalley Brewhouse Tavern 209.90, -3.49, 74.08 Kuhlbreaz 02/06/12
55949 Statuette of Sir Danik Quest update location 208.95, -1.84, 71.87 Kuhlbreaz 02/06/12
55946 Fen Translated Rune Quest update location 4.38, 8.31, -120.41 wildbeastimal 02/05/12
55944 Mounts Stables -216.91, -55.41, 104.22 meridius4510 02/04/12
55914 Lerenth Quest starter NPC 123.64, -16.05, 120.20 Mysstie 01/28/12
55898 Dismal Rage Zone -114.91, -8.15, -158.44 ultramagnuss 01/25/12
55890 Sergant Daimyo <Freeport Militia> Quest update NPC -126.29, -37.86, -0.28 dertyrat 01/23/12
55884 Vampire Evidence Quest update location 32.77, -7.98, -95.02 Dasen 01/21/12
55883 vampire evidence Quest update location -78.53, -34.59, -328.03 Dasen 01/21/12
55881 Manual for heritage "A Trail to the Past" Quest update location 30.93, -7.00, -134.12 Trinity3205 01/21/12
55878 Blurt Grasplung Mercenaries -235.92, -272.93, 3.36 Liandra 01/20/12
55877 Denva Loogei Mercenaries -237.09, -272.93, 0.80 Liandra 01/20/12
55876 Trundo Flitterfling Mercenaries -229.60, -272.93, 7.65 Liandra 01/20/12
55875 Keyrin Curetouch Mercenaries -229.09, -272.93, 1.82 Liandra 01/20/12
55874 Nevis Yewkus Mercenaries -226.01, -272.93, 1.91 Liandra 01/20/12
55873 Bordis Glacierbane Mercenaries -225.54, -272.63, 7.21 Liandra 01/20/12
55872 Vittia Direshadow Mercenaries -223.07, -272.93, -5.94 Liandra 01/20/12
55871 Gandol Deathwing Mercenaries -223.31, -272.93, -7.93 Liandra 01/20/12
55867 Coalition of Tradesfolke Building 59.95, -19.75, 83.79 Roadie 01/18/12
55857 Timing the Night Shift Quest update location 155.40, -26.15, 136.90 EbonBlade 01/17/12
55856 Timing the Night Shift Quest update location 286.45, -3.49, -19.27 EbonBlade 01/17/12
55855 Timing the Night Shift Quest update location 254.69, -3.52, -61.47 EbonBlade 01/17/12
55854 Timing the Night Shift Quest update location 54.23, -20.00, 68.15 EbonBlade 01/17/12
55853 Timing the Night Shift Quest update location 124.11, -16.01, 122.46 EbonBlade 01/17/12
55852 Listening In For Qeynos Quest update location 154.99, 0.66, 122.28 EbonBlade 01/17/12
55851 Listening In For Qeynos Quest update location -1.38, 7.30, -120.84 EbonBlade 01/17/12
55850 Listening In For Qeynos Quest update location -111.57, -37.36, 41.92 EbonBlade 01/17/12
55849 Listening In For Qeynos Quest update location -281.71, -57.94, 142.13 EbonBlade 01/17/12
55829 Captain Siren NPC -301.65, -57.94, 137.62 Dnoelle 01/13/12
55828 Nellin Jessith NPC -83.16, -18.02, 276.14 Dnoelle 01/13/12
55827 Lieutenant Dalling NPC 154.14, -7.05, 116.65 Dnoelle 01/13/12
55822 Jade Tiger's Den Comfort Suite Player housing -76.95, -11.00, -80.88 Seagoat 01/12/12
55821 Jade Tiger's Den Comfort Suite Player housing -90.63, -11.00, -84.32 Seagoat 01/12/12
55820 Jade Tiger's Den Comfort Suite Player housing -104.15, -11.00, -87.67 Seagoat 01/12/12
55819 Jade Tiger's Den Social Suite Player housing -76.32, -21.42, -64.50 Seagoat 01/12/12
55818 Jade Tiger's Den Social Suite Player housing -82.19, -21.41, -65.95 Seagoat 01/12/12
55817 Jade Tiger's Den Social Suite Player housing -88.05, -21.42, -67.43 Seagoat 01/12/12
55816 Jade Tiger's Den Social Suite Player housing -93.84, -21.43, -68.89 Seagoat 01/12/12
55815 Jade Tiger's Den Comfort Suite Player housing -71.98, -21.43, -82.44 Seagoat 01/12/12
55814 Jade Tiger's Den Comfort Suite Player housing -77.72, -21.43, -83.88 Seagoat 01/12/12
55813 Jade Tiger's Den Comfort Suite Player housing -83.72, -21.43, -85.39 Seagoat 01/12/12
55804 Sscire Slitherscale Mercenaries -240.64, -272.93, -2.21 kross_nyr 01/10/12
55787 Kain Starkson Quest starter NPC -252.85, -54.83, 16.58 BangsLiekWhoa 01/06/12
55785 Words of Zxrath Object location -122.58, -39.05, -237.14 echomsp 01/05/12
55784 Words of Zxrath Object location 208.51, -2.60, 102.82 echomsp 01/05/12
55783 Words of Zxrath Object location 276.11, -2.25, -105.18 echomsp 01/05/12
55782 Words of Zxrath Object location 141.09, -2.60, -85.06 echomsp 01/05/12
55781 Words of Zxrath Object location -235.67, -54.90, 199.63 echomsp 01/05/12
55778 Jeth the Spy Quest update NPC -129.16, -37.83, -20.39 Lera 01/03/12
55776 Body Quest update location 6.98, -18.80, -279.87 Morlane 01/02/12
55771 Street Tough Quest update NPC -55.81, -19.59, -324.93 JGiven3 12/31/11
55770 Everett Splizen Quest update NPC -202.89, -56.07, 49.83 Prof72 12/31/11
55769 Cleerie Germinas Quest update NPC -203.30, -56.07, 47.62 Prof72 12/31/11
55767 1 Freedom Road Player housing -127.09, -34.01, 173.15 Seagoat 12/30/11
55766 2 Freedom Road Player housing -136.84, -34.30, 149.06 Seagoat 12/30/11
55765 Magical Academy Housing Player housing 17.65, -42.77, -146.87 Seagoat 12/30/11
55764 7 Integrity Road Player housing -142.52, -35.98, -157.08 Seagoat 12/30/11
55763 5 Integrity Road Player housing -149.33, -41.22, -145.09 Seagoat 12/30/11
55762 3 Integrity Road Player housing -138.54, -41.22, -161.94 Seagoat 12/30/11
55761 1 Integrity Road Player housing -96.66, -39.19, -225.28 Seagoat 12/30/11
55760 10 Integrity Road Player housing -99.49, -33.51, -279.78 Seagoat 12/30/11
55758 6 Integrity Road Player housing -86.17, -33.51, -302.41 Seagoat 12/29/11
55757 4 Integrity Road Player housing -84.48, -33.51, -316.35 Seagoat 12/29/11
55756 1 Compassion Road Player housing -142.16, -51.87, -295.71 Seagoat 12/29/11
55755 Seafarer's Roost Royal Suite Player housing -228.25, -48.96, 7.13 Seagoat 12/29/11
55754 Mailbox Mailbox 261.20, -3.52, -120.70 Amiranda 12/29/11
55744 3 Compassion Road Player housing -156.31, -57.62, -234.26 maproy99 12/28/11
55738 Seafury Buccaneer's Hideout Zone -119.36, -53.12, -308.18 rrr80120 12/26/11
55737 Portal to Dethknell Citadel Zone 10.29, -19.67, 9.78 TW Shrub 12/23/11
55735 Broker Shop 268.75, -3.52, -107.64 lomonacov 12/22/11
55723 Lucanic Knight Octavius Viventio Monster Named 10.00, -20.00, -38.00 donhead 12/19/11
55722 Lucanic Knight Marcus Rusonius Monster Named -55.00, -22.00, 72.00 donhead 12/19/11
55721 Lucanic Knight Spurius Cominius Monster Named 53.00, -20.00, 8.00 donhead 12/19/11
55718 a Bonebreaker Champion Quest update NPC 281.84, -3.91, 119.70 Elervan 12/18/11
55712 Kreglebop Yekl Quest update NPC 294.74, -3.46, 24.67 Sutekh 12/16/11
55707 Aimee Quest update NPC 229.00, -3.00, -59.00 donhead 12/15/11
55706 Caltuur (Kerran Mentor) NPC -201.60, -56.69, 154.52 shaado51 12/15/11
55705 Xass Weaponsmith Quest update NPC 29.93, -12.40, 101.76 kristees 12/15/11
55673 8 Integrity Road Player housing -89.01, -33.51, -288.89 Mirage1974 12/15/11
55667 Cell Report Quest update location -185.72, -30.24, 278.82 Pallor 12/13/11
55662 Backalley Brewhouse Take - Bruiser Epic Quest update location 170.39, -23.42, 130.00 Karofin 12/13/11
55661 Blood Haze Inn Take for Bruiser Epic Quest update location 195.54, -2.47, -119.31 Karofin 12/13/11
55660 Temple Street Door -174.13, -36.70, 326.81 camelotcrusade 12/13/11
55658 Dyymona K'Vexx Quest starter NPC -13.85, -34.26, -122.32 Callamity 12/13/11
55657 Forge Tradeskill -225.00, -56.00, 176.00 donhead 12/12/11
55656 Engraved Desk Tradeskill -224.00, -56.00, 154.00 donhead 12/12/11
55655 Stove & Keg Tradeskill -219.00, -56.00, 144.00 donhead 12/12/11
55654 Chemistry Table Tradeskill -208.00, -56.00, 152.00 donhead 12/12/11
55653 Work Bench Tradeskill -218.00, -56.00, 190.00 donhead 12/12/11
55652 Sewing Table Tradeskill -209.00, -56.00, 189.00 donhead 12/12/11
55651 Woodworking Table Tradeskill -223.00, -56.00, 183.00 donhead 12/12/11
55650 Eamric Icefist <<Guardian Trainer>> Scribe 159.00, -17.00, 125.00 donhead 12/12/11
55649 L`Tor <<Berserker Trainer>> Scribe 139.00, -17.00, 137.00 donhead 12/12/11
55648 Shirzzt Bonelasher <<Shadowknight Trainer>> Scribe 147.00, -17.00, 118.00 donhead 12/12/11
55647 Trooper Bonesaw Quest starter NPC 151.00, -17.00, 114.00 donhead 12/12/11
55646 Rhahrda Olhymne <<Templar Trainer>> Scribe -78.00, -10.00, -134.00 donhead 12/12/11
55645 Claudette Woodbridge <<Portals Trainer>> Scribe -75.00, -10.00, -139.00 donhead 12/12/11
55644 Blerrkt Marrowdrinker <<Warden Trainer>> Scribe -73.00, -10.00, -148.00 donhead 12/12/11
55643 Kurid T'Sal <<Inquisitor Trainer>> Scribe -70.00, -10.00, -156.00 donhead 12/12/11
55642 Dyvll Ssavan <<Defiler Trainer>> Scribe -95.00, -10.00, -154.00 donhead 12/12/11
55641 Xeuxa Foamheart <<Fury Trainer>> Scribe -97.00, -10.00, -146.00 donhead 12/12/11
55640 Convert Y`Ral Quest starter NPC -100.00, -10.00, -137.00 donhead 12/12/11
55639 Gevil Gigglegibber Quest starter NPC 160.00, -4.00, -99.00 donhead 12/12/11
55637 Trtsin <<Brigand Trainer>> Scribe -239.00, -49.00, -18.00 donhead 12/12/11
55636 Lucius Wavedancer <<Troubador Trainer>> Scribe -239.00, -49.00, -3.00 donhead 12/12/11
55635 Sicangu Wi <<Dirge Trainer>> Scribe -239.00, -49.00, 12.00 donhead 12/12/11
55634 Joss Ridgemarr <<Ranger Trainer>> Scribe -231.00, -49.00, 4.00 donhead 12/12/11
55633 Edesii <<Assassin Trainer>> Scribe -233.00, -49.00, 7.00 donhead 12/12/11
55632 Squab Kalina Quest starter NPC -232.00, -49.00, 14.00 donhead 12/12/11
55631 Gaeri Tallspire Mercenaries -215.00, -273.00, -7.00 donhead 12/12/11
55629 Dinaris Jounst Mercenaries -233.00, -273.00, 2.00 donhead 12/12/11
55628 Lollia Parnesius <<General Goods>> Shop -234.00, -56.00, -4.00 donhead 12/12/11
55627 Alypia Damian <<General Goods>> Shop -253.00, -55.00, 113.00 donhead 12/12/11
55626 Zula Tazil Shop -210.00, -56.00, 96.00 donhead 12/12/11
55625 Kaeso Polluvius Quest update NPC -293.00, -58.00, 144.00 donhead 12/12/11
55623 Salla Quest update NPC -260.00, -58.00, 143.00 donhead 12/12/11
55622 Juvena Shop 35.00, -18.00, 105.00 donhead 12/12/11
55621 Forge Tradeskill 34.00, -12.00, 101.00 donhead 12/12/11
55620 Sewing Table Tradeskill 29.00, -12.00, 106.00 donhead 12/12/11
55619 Work Bench Tradeskill 24.00, -12.00, 96.00 donhead 12/12/11
55618 Woodworking Table Tradeskill 32.00, -12.00, 96.00 donhead 12/12/11
55617 Engraved Desk Tradeskill 25.00, -12.00, 85.00 donhead 12/12/11
55615 Chemistry Table Tradeskill 33.00, -12.00, 81.00 donhead 12/12/11
55614 Caius Callidus <<Work Orders>> Quest starter NPC 30.00, -12.00, 90.00 donhead 12/12/11
55613 Alethea Augustine <<Rush Orders>> Quest starter NPC 28.00, -12.00, 90.00 donhead 12/12/11
55612 Aelia Catus <<General Goods>> Shop 46.66, -12.07, 89.35 donhead 12/12/11
55611 Profallia <<Broker>> Shop 46.00, -12.00, 86.00 donhead 12/12/11
55610 Feepsin Quest update NPC 43.00, -12.00, 91.00 donhead 12/12/11
55609 Matthias Zoe <<Crafting Trainer>> Artisan 31.00, -18.00, 78.00 donhead 12/12/11
55608 Jules Jumsinger <<Banker>> Bank 29.00, -18.00, 76.00 donhead 12/12/11
55607 Neophyte Jhanov Quest starter NPC -1.00, -6.00, -115.00 donhead 12/12/11
55606 Tullia Sulla <<Coercer Trainer>> Scribe 15.00, -7.00, -134.00 donhead 12/12/11
55605 Torbett Witlocke <<Illusionist Trainer>> Scribe 31.00, -7.00, -126.00 donhead 12/12/11
55604 Jabir Maridar <<Wizard Trainer>> Scribe 21.00, -7.00, -129.00 donhead 12/12/11
55603 Ellynottin Zookbiddle <<Necromancer Trainer>> Scribe 20.00, -7.00, -124.00 donhead 12/12/11
55602 Claudia Quarto <<Warlock Trainer>> Scribe 24.00, -7.00, -123.00 donhead 12/12/11
55601 Navarius Orvalis <<Sage>> Scribe 9.84, -7.00, -134.64 donhead 12/12/11
55600 Cles Quest update NPC 29.00, -7.00, -120.00 donhead 12/12/11
55577 Valeein H'shra Archines for Back to the fold quest Zone -125.10, -46.07, -176.21 Barbai 12/11/11
55566 Jil Nellox Quest update NPC 138.71, -16.11, 87.86 Callamity 12/10/11
55565 Mailbox Mailbox 40.92, -18.22, 97.89 Callamity 12/10/11
55564 Vellia Krissk Quest update NPC -67.63, -7.97, -119.05 Callamity 12/10/11
55563 Zulk Veskk Quest starter NPC -85.54, -25.01, 246.86 Callamity 12/10/11
55562 Belimee Viperwing Quest starter NPC -79.06, -10.16, -158.36 Callamity 12/10/11
55561 Administrator Frugi Quest starter NPC -82.53, -8.99, -122.79 Callamity 12/10/11
55560 Kenth Lanringe Quest starter NPC -104.55, -8.16, -96.24 Callamity 12/10/11
55559 Izzay Meestere Quest starter NPC -118.42, -21.43, -67.96 Callamity 12/10/11
55558 Gorowyn Chancery Site -111.92, -37.26, -27.10 Callamity 12/10/11
55557 Ambassador Erazak Quest starter NPC -125.59, -45.53, -48.06 Callamity 12/10/11
55556 Secret Sewer Door -200.30, -66.16, -103.55 Aiirbornne 12/09/11
55555 Gruurz Quest update NPC -230.70, -48.96, 7.42 Aiirbornne 12/09/11
55553 Kroota Gukbutcher Quest starter location 220.10, -3.67, 99.55 Aiirbornne 12/09/11
55552 Fonda Reforger 280.08, -3.52, -101.37 Aiirbornne 12/09/11
55548 2 Integrity Road Player housing -88.23, -33.51, -330.61 blackbast 12/09/11
55547 Inkeeper Blerg Splinterthumb <Housing> NPC -93.97, -21.43, -79.38 blackx 12/09/11
55546 Emissary Midia Quest starter NPC -92.34, -21.43, -84.80 blackx 12/09/11
55545 5 Compassion Road Player housing -181.75, -57.96, -189.98 blackbast 12/09/11
55543 World and Freeport Travel Bell -211.05, -56.07, 47.01 Rasaraja 12/09/11
55542 Ironstar NPC 277.27, -3.52, -103.31 Callamity 12/09/11
55541 Fonda Reforger 283.48, -3.52, -100.27 Callamity 12/09/11
55540 Jan MacGetz Quest update NPC 267.62, -3.52, -113.00 Callamity 12/09/11
55539 Met Sleeth Quest update NPC 239.17, -3.49, 79.63 Callamity 12/09/11
55538 Krung Ironfist Shop 274.87, -4.06, 93.08 Callamity 12/09/11
55537 Aric Pickhall Shop 280.22, -3.99, 111.68 Callamity 12/09/11
55536 Serris Quest starter NPC 134.86, -7.05, 129.52 Callamity 12/09/11
55535 Mailbox Mailbox -221.95, -56.09, -13.82 Callamity 12/09/11
55530 Jantus Ezrek NPC -0.08, -7.00, -130.14 Callamity 12/09/11
55529 Stack of Books on table Quest starter location 10.28, -7.00, -130.87 Callamity 12/09/11
55528 Sneel Valiyn Quest starter NPC -21.73, -8.71, -89.93 Callamity 12/09/11
55527 Drund Mordgraahl Skullsprain Quest starter NPC -88.67, -8.99, -116.68 Callamity 12/09/11
55526 Julia Florens Shop -106.61, -20.35, -83.12 Callamity 12/09/11
55525 Cipius Abito Provisioner -123.13, -21.43, -78.20 Callamity 12/09/11
55524 Aldrevia Metilla Tailor -125.87, -21.43, -69.56 Callamity 12/09/11
55523 Vibia Valens Quest starter NPC -131.79, -21.43, -72.32 Callamity 12/09/11
55522 Vassi Darkscale Quest starter NPC -74.30, -11.00, -77.49 Callamity 12/09/11
55521 Glaria Quest starter NPC -82.23, -21.43, -82.37 Callamity 12/09/11
55520 Zizwold Quest starter NPC -107.76, -37.77, 43.58 Callamity 12/09/11
55519 City Registrar Glamis NPC -122.31, -37.77, 43.17 Callamity 12/09/11
55518 Kirsteh the Witch Quest starter NPC -135.96, -37.77, 50.07 Callamity 12/09/11
55517 Vhishall Furniture -94.51, -36.89, 60.83 Callamity 12/09/11
55516 Trothak Reforger -131.13, -37.86, -0.99 Callamity 12/09/11
55515 Dyric Pire Quest starter NPC -127.89, -37.86, -10.66 Callamity 12/09/11
55514 Thieves' Way Zone -127.30, -36.97, -22.13 Callamity 12/09/11
55513 Ambassador Anttel V'Xeath Quest starter NPC -120.54, -37.86, 23.39 Callamity 12/09/11
55512 Vhishall Shop -91.86, -37.86, 61.39 Callamity 12/09/11
55511 Aemilia Sevso Shop -68.47, -37.78, 28.39 Callamity 12/09/11
55510 Lynda Chemroot Shop -65.77, -37.78, 28.53 Callamity 12/09/11
55509 Kell Glavitus Tradeskill -58.39, -37.78, 33.26 Callamity 12/09/11
55508 Marcia Betto Tradeskill -71.56, -38.83, 44.88 Callamity 12/09/11
55507 Ambassador Zrelach Quest update location -131.21, -44.62, -55.40 makingitbetter7 12/09/11
55506 Thieves' Way Zone -217.32, -55.25, 240.34 Callamity 12/09/11
55505 Nelik Ulnya Quest starter NPC -234.03, -56.04, 197.05 Callamity 12/09/11
55504 Krishana Shop -241.95, -55.43, 101.37 Callamity 12/09/11
55503 a Gigglegibber Goblin Gamblin' Game Vendor NPC -280.53, -56.07, 109.46 Callamity 12/09/11
55502 Legends of Norrath Museum Zone -291.43, -56.07, 110.22 Callamity 12/09/11
55501 Zargga Shop -280.63, -56.14, 95.65 Callamity 12/09/11
55500 Bell Bell -213.21, -56.07, 42.89 Callamity 12/09/11
55499 Stamper Jeralf Mercenaries -237.44, -55.18, 15.82 Callamity 12/09/11
55498 Keetra Morrow NPC -234.67, -55.18, 6.74 Callamity 12/09/11
55497 Brenin Stoutheart Mercenaries -220.50, -55.09, -1.07 Callamity 12/09/11
55496 Thavian Destrus Quest starter NPC -249.81, -56.07, -73.01 Callamity 12/09/11
55495 Val'il Quest starter NPC -179.43, -56.21, -60.05 Callamity 12/09/11
55494 Polycethes & Progenitus Shop -231.72, -55.47, 97.16 Callamity 12/09/11
55493 Renny Parvat Quest update NPC -219.94, -55.71, 88.32 Callamity 12/09/11
55492 Quartermaster Baile Quest starter NPC -204.42, -56.07, 105.05 Callamity 12/09/11
55491 Mailbox Mailbox -221.69, -56.07, 129.58 Callamity 12/09/11
55490 Zafira Shop -283.93, -57.94, 130.61 Callamity 12/09/11
55489 Bell Bell -232.67, -56.06, 175.29 Callamity 12/09/11
55488 Bell Bell -233.56, -56.06, 166.87 Callamity 12/09/11
55487 Karila T'zel Shop -219.23, -56.55, 174.39 Callamity 12/09/11
55486 Agamennus Shop -217.93, -56.45, 161.58 Callamity 12/09/11
55485 Soleficus Baro Bank -212.53, -56.49, 160.04 Callamity 12/09/11
55484 Caltuur Quest starter NPC -201.81, -56.69, 154.38 Callamity 12/09/11
55483 Scale Yard Door -64.95, -24.47, 287.03 Callamity 12/09/11
55482 Big Bend Door 58.35, -12.10, 270.85 Callamity 12/09/11
55481 Derald Walldons Quest starter NPC -84.53, -7.36, 192.79 Callamity 12/09/11
55480 Sergeant Nominus Quest starter NPC -91.86, -25.00, 194.67 Callamity 12/09/11
55479 Kybosh Clangsworthy Tradeskill -96.10, -23.00, 106.74 Callamity 12/09/11
55478 Ginny Boomsprocket Tradeskill -92.49, -23.00, 106.24 Callamity 12/09/11
55477 Mailbox Mailbox -120.89, -24.45, -59.81 Callamity 12/09/11
55476 Stonestair Byway Door -4.47, -17.87, -330.36 Callamity 12/09/11
55475 Longshadow Alley Door -93.00, -34.52, -368.27 Callamity 12/09/11
55468 Beggar's Court Door -150.67, -50.60, -376.88 Callamity 12/09/11
55467 Mercenaries for Hire Door -243.54, -65.73, -9.99 camelotcrusade 12/08/11
55466 Bellut Shortsong (Merc) Mercenaries -253.36, -55.19, -14.64 camelotcrusade 12/08/11
55465 Kroota Gukbutcher (Ogre Mentor) NPC 221.87, -3.66, 100.96 Mirage1974 12/08/11
55464 Gurb the Master Weaponsmith Weapons 215.62, -3.66, 104.39 Mirage1974 12/08/11
55463 Barber Whiskerwuzzle Shop 204.02, -3.66, 102.18 Mirage1974 12/08/11
55462 Champion's Coliseum Site 231.63, -3.31, -43.86 Mirage1974 12/08/11
55461 Banker Magia Cotta Bank 189.83, -2.47, -125.30 Mirage1974 12/08/11
55460 Banker Macrinus Sanctus Bank 225.98, -2.47, -125.25 Mirage1974 12/08/11
55459 Freeport Reserve Site 207.97, -2.47, -104.20 Mirage1974 12/08/11
55457 The Arena Zone 232.72, -1.63, -32.91 Mirage1974 12/08/11
55456 Dreadnaughts Plaza Site 271.70, -3.88, 108.76 Mirage1974 12/08/11
55455 7 Compassion Road Player housing -219.82, -57.78, -149.33 Rasaraja 12/08/11
55454 Freeport and World Travel Bell -188.48, -58.82, -225.32 Rasaraja 12/08/11
55453 Kanos X'aphon Quest starter NPC 12.30, -20.06, -218.85 Rasaraja 12/08/11
55450 The Thieves' Way Zone 305.51, -3.60, -22.79 dragondodger 12/08/11
55449 Mulka the Skinner (Pet Merchant) Shop 121.75, -3.26, -68.78 Mirage1974 12/08/11
55448 Handler Pachomius (Mount Merchant) Stables 130.35, -4.01, -92.63 Mirage1974 12/08/11
55447 Tradeskill Apprentices NPC 48.39, -18.22, 87.58 Mirage1974 12/08/11
55446 Coalition of Tradesfolke Site 35.30, -18.22, 91.36 Mirage1974 12/08/11
55445 Execution Plaza Site 103.05, -22.95, 44.36 Mirage1974 12/08/11
55444 Overlord's Plaza Site 0.20, -20.42, 18.56 Mirage1974 12/08/11
55443 Viducius Festus (Armour and Weapon Upgrades) Weapons -257.88, -55.71, 83.58 Mirage1974 12/08/11
55442 Banker Salonia Siculus Bank -231.11, -55.71, 86.04 Mirage1974 12/08/11
55441 Timeless Chronomage NPC -274.78, -56.11, 83.50 Mirage1974 12/08/11
55440 Culdor (Mender) NPC -263.96, -55.71, 89.65 Mirage1974 12/08/11
55439 Jemilar (Reforger) Reforger -261.36, -55.71, 88.04 Mirage1974 12/08/11
55438 Academy of Arcane Science Building -9.07, -5.96, -110.71 Mirage1974 12/08/11
55437 Temple of War Building -91.44, -9.02, -125.07 Mirage1974 12/08/11
55436 The Jade Tiger's Den Inn -108.87, -21.43, -70.43 Mirage1974 12/08/11
55435 Jade Tiger's Den Basic Room Player housing -89.43, -21.43, -86.82 Mirage1974 12/08/11
55434 Proving Grounds Portal Zone -48.57, -20.05, -263.24 Mirage1974 12/08/11
55433 Freeport Guild Hall, Tier 2 Guild housing -14.73, -18.80, -261.47 Mirage1974 12/08/11
55432 Freeport Guild Hall, Tier 1 Guild housing -24.13, -7.01, 196.92 Mirage1974 12/08/11
55431 2 Justice Road Player housing -141.09, -17.04, 287.31 Mirage1974 12/08/11
55430 1 Justice Road Player housing -90.47, -16.75, 285.75 Mirage1974 12/08/11
55429 Freeport Housing Portals Player housing -113.00, -17.85, 269.34 Mirage1974 12/08/11
55428 7 Freedom Road Player housing -153.18, -20.04, 271.22 Mirage1974 12/08/11
55427 3 Freedom Road Player housing -143.03, -25.29, 261.94 Mirage1974 12/08/11
55426 5 Freedom Road Player housing -157.18, -25.29, 276.09 Mirage1974 12/08/11
55425 10 Freedom Road Player housing -178.14, -28.97, 263.64 Mirage1974 12/08/11
55424 8 Freedom Road Player housing -177.66, -28.97, 252.22 Mirage1974 12/08/11
55423 6 Freedom Road Player housing -171.97, -28.97, 241.06 Mirage1974 12/08/11
55422 4 Freedom Road Player housing -173.89, -28.97, 229.88 Mirage1974 12/08/11
32467 Statuette of Sir Dandle Quest update location -131.48, -43.53, -56.44 slackmessiah 08/11/07

 
Login
Username
Password
Official Project
This is an official community team project supported by EQ2Interface.com
Current Stats
There are currently 32,476 points of interest on 914 maps.

New POIs:
» Ephemeral Strand
  Vesspyr Isles
» Ephemeral Strand
  Vesspyr Isles
» Crytid
  Kralet Penumbra [C...
» Maldura Express
  Maldura City
» Hero Festival...
  The Eidolon Jungle
» Forest Soil
  Obulus Frontier
» Forest Soil
  Obulus Frontier
» Forest Soil
  Obulus Frontier
» Worn Cae'Dal S...
  Obulus Frontier
» Chipped Cae'Da...
  Obulus Frontier
» Torn Cae'Dal S...
  Obulus Frontier
» Sabertooth Loo...
  Thundering Steppes
» Valigez, The E...
  The Ruins of Kaeso...
» Chomp
  The Ruins of Kaeso...
» The Strathbone...
  The Ruins of Kaeso...

EQ2Interface
EQ2MAP Copyright ?2004 - Hosted by: EQ2Interface.com
Everquest II is a registered Trademark of Daybreak Game Company.